Labette, Kansas
Current Conditions -  °F | °C
As of 5:52 PM on Saturday 25 Oct 2014 (Local Time) from KPPF Reporting Station
Clear Clear  
Wind Chill: 81°   Ceiling: Unl
Heat Index: 83°   Visibility: 10mi
Dew Point: 65°   Wind: 5mph
Humidity: 58%   Direction: 190°S
Pressure: 30.02"   Gusts: NA
Location:  37.2003°N, 95.1784°W
Report Text: KPPF 252252Z AUTO 19004KT 10SM CLR 27/18 A3002 RMK AO2 SLP157 T02720183
Loading
Personal Weather Stations






























Interactive Weather Map
Tropical Storm Tracking
New forecast layout! Learn more

10-Day Weather Forecast

Advertisements
Track Severe Weather on mobile